Pagrindinis puslapis
METAR-TAF:

METAR-TAF

Oro uostai :

Coleman, Teksasas, Jungtinės Amerikos Valstijos

platuma: 31-50-28N, ilguma: 099-24-12W, Aukštis: 517 m

Dabartinis oras

Ataskaita buvo paskelbta 29 minutes, ne 05:15 UTC
Vėjas 11 kt iš Šiaurės Rytų su gūsio iki 16 kt
Temperatūra 21°C
Drėgmė 73%
Slėgis 1018 hPa
Matomumas: 16.1 km
Išsisklaidę debesys ne aukštis 5000 ft
Apsiniaukę ne aukštis 6500 ft

METAR: KCOM 220515Z AUTO 05011G16KT 10SM SCT050 OVC065 21/16 A3007 RMK AO2 T02070156

Laikas: 23:44 (05:44 UTC)


TAF: trūkstamas

Orai ataskaitas ir orų prognozės (METAR, TAF).

turimą stotys yra geltonos ir raudonos taškus žemėlapyje.

Perkelti pele per norėdami pamatyti stoties vardą.

Tada spustelėkite, norėdami matyti oro stebėjimo ir prognozės.

Norėdami pakeisti žemėlapį: spustelėkite ant žalios mygtukų su juodo kryžiaus žemyn,; žalią mygtuką su brūkšneliu, jei norite nutolinti; arba žalių rodyklių gretimoms žemėlapius.


METAR-TAF: